Flight Track Log - Related Links

Times and Time Zones

All times are in EDT time to prevent confusion due to time zone crossing. See the DAL1979 flight status page for this flight to view local times or setup timezone preferences in your user account.

Time Position Orientation Groundspeed Altitude Reporting Facility
EDT Latitude Longitude Course Direction KTS MPH feet Rate Location/Type
Mon 11:37:32 AM 44.8760 -93.2070 125° Southeast 173 199 900  Level FlightAware ADS-B
Mon 11:38:07 AM 44.8610 -93.1700 120° Southeast 197 227 2,200 2,000 Climbing FlightAware ADS-B
Mon 11:38:17 AM 44.8570 -93.1590 117° Southeast 210 242 2,400 1,950 Climbing FlightAware ADS-B
Mon 11:38:47 AM 44.8410 -93.1220 121° Southeast 219 252 3,500 2,000 Climbing FlightAware ADS-B
Mon 11:39:02 AM 44.8290 -93.1090 142° Southeast 232 267 3,900 1,400 Climbing FlightAware ADS-B
Mon 11:39:17 AM 44.8170 -93.0960 142° Southeast 251 289 4,200 1,800 Climbing FlightAware ADS-B
Mon 11:39:42 AM 44.7900 -93.0690 145° Southeast 273 314 5,100 2,618 Climbing FlightAware ADS-B
Mon 11:40:12 AM 44.7590 -93.0360 143° Southeast 278 320 6,600 2,618 Climbing FlightAware ADS-B
Mon 11:40:37 AM 44.7340 -93.0090 143° Southeast 293 337 7,500 2,509 Climbing FlightAware ADS-B
Mon 11:41:07 AM 44.7030 -92.9740 141° Southeast 296 341 8,900 2,509 Climbing FlightAware ADS-B
Mon 11:41:32 AM 44.6720 -92.9430 145° Southeast 311 358 9,800 1,714 Climbing FlightAware ADS-B
Mon 11:42:17 AM 44.6180 -92.8880 144° Southeast 350 403 10,900 1,341 Climbing FlightAware ADS-B
Mon 11:42:57 AM 44.5630 -92.8320 144° Southeast 387 445 11,700 1,341 Climbing FlightAware ADS-B
Mon 11:43:42 AM 44.4940 -92.7570 142° Southeast 419 482 12,800 1,835 Climbing FlightAware ADS-B
Mon 11:44:22 AM 44.4430 -92.6810 133° Southeast 424 488 14,300 1,906 Climbing FlightAware ADS-B
Mon 11:45:07 AM 44.3960 -92.5710 121° Southeast 444 511 15,500 1,976 Climbing FlightAware ADS-B
Mon 11:45:47 AM 44.3540 -92.4730 121° Southeast 444 511 17,100 2,100 Climbing FlightAware ADS-B
Mon 11:46:27 AM 44.3110 -92.3750 121° Southeast 453 521 18,300 1,765 Climbing FlightAware ADS-B
Mon 11:47:12 AM 44.2610 -92.2570 121° Southeast 465 535 19,600 1,624 Climbing FlightAware ADS-B
Mon 11:47:52 AM 44.2160 -92.1530 121° Southeast 476 548 20,600 1,575 Climbing FlightAware ADS-B
Mon 11:48:32 AM 44.1690 -92.0480 122° Southeast 482 555 21,700 1,694 Climbing FlightAware ADS-B
Mon 11:49:17 AM 44.1190 -91.9300 121° Southeast 486 559 23,000 1,553 Climbing FlightAware ADS-B
Mon 11:49:57 AM 44.0730 -91.8230 121° Southeast 493 567 23,900 1,271 Climbing FlightAware ADS-B
Mon 11:50:42 AM 44.0160 -91.6950 122° Southeast 504 580 24,800 1,271 Climbing FlightAware ADS-B
Mon 11:51:22 AM 43.9690 -91.5890 122° Southeast 509 586 25,700 1,350 Climbing FlightAware ADS-B
Mon 11:52:02 AM 43.9140 -91.4760 124° Southeast 519 597 26,600 1,129 Climbing FlightAware ADS-B
Mon 11:52:47 AM 43.8450 -91.3700 132° Southeast 529 609 27,300 988 Climbing FlightAware ADS-B
Mon 11:53:27 AM 43.7750 -91.2690 134° Southeast 536 617 28,000 1,125 Climbing FlightAware ADS-B
Mon 11:54:07 AM 43.7050 -91.1720 135° Southeast 537 618 28,800 1,271 Climbing FlightAware ADS-B
Mon 11:54:52 AM 43.6240 -91.0580 134° Southeast 535 616 29,800 1,341 Climbing FlightAware ADS-B
Mon 11:55:32 AM 43.5550 -90.9610 134° Southeast 533 613 30,700 1,200 Climbing FlightAware ADS-B
Mon 11:56:17 AM 43.4780 -90.8530 134° Southeast 533 613 31,500 1,059 Climbing FlightAware ADS-B
Mon 11:56:57 AM 43.4080 -90.7570 135° Southeast 533 613 32,200 918 Climbing FlightAware ADS-B
Mon 11:57:42 AM 43.3290 -90.6480 135° Southeast 537 618 32,800 847 Climbing FlightAware ADS-B
Mon 11:58:22 AM 43.2580 -90.5510 135° Southeast 540 621 33,400 975 Climbing FlightAware ADS-B
Mon 11:59:02 AM 43.1780 -90.4720 144° Southeast 545 627 34,100 847 Climbing FlightAware ADS-B
Mon 11:59:47 AM 43.0810 -90.3990 151° Southeast 549 632 34,600 494 Climbing FlightAware ADS-B
Mon 12:00:27 PM 42.9900 -90.3330 152° Southeast 551 634 34,800 300 Climbing FlightAware ADS-B
Mon 12:01:07 PM 42.9000 -90.2660 151° Southeast 553 636 35,000 141 Climbing FlightAware ADS-B
Mon 12:01:52 PM 42.7960 -90.1920 152° Southeast 546 628 35,000  Level FlightAware ADS-B
Mon 12:02:32 PM 42.7060 -90.1300 153° Southeast 544 626 35,000  Level FlightAware ADS-B
Mon 12:03:17 PM 42.6060 -90.0620 153° Southeast 545 627 35,000  Level FlightAware ADS-B
Mon 12:03:57 PM 42.5150 -90.0000 153° Southeast 546 628 35,000  Level FlightAware ADS-B
Mon 12:04:37 PM 42.4280 -89.9400 153° Southeast 547 629 35,000  Level FlightAware ADS-B
Mon 12:05:22 PM 42.3240 -89.8680 153° Southeast 546 628 35,000  Level FlightAware ADS-B
Mon 12:06:02 PM 42.2340 -89.8070 153° Southeast 546 628 35,000  Level FlightAware ADS-B
Mon 12:06:42 PM 42.1420 -89.7440 153° Southeast 545 627 35,000  Level FlightAware ADS-B
Mon 12:07:27 PM 42.0420 -89.6770 154° Southeast 545 627 35,000  Level FlightAware ADS-B
Mon 12:08:07 PM 41.9520 -89.6160 153° Southeast 542 624 35,000  Level FlightAware ADS-B
Mon 12:08:52 PM 41.8540 -89.5500 153° Southeast 541 623 35,000  Level FlightAware ADS-B
Mon 12:09:32 PM 41.7620 -89.4890 154° Southeast 539 620 35,000  Level FlightAware ADS-B
Mon 12:10:17 PM 41.6670 -89.4250 153° Southeast 537 618 35,000  Level FlightAware ADS-B
Mon 12:10:57 PM 41.5730 -89.3630 154° Southeast 536 617 35,000  Level FlightAware ADS-B
Mon 12:11:37 PM 41.4820 -89.3030 154° Southeast 535 616 35,000  Level FlightAware ADS-B
Mon 12:12:22 PM 41.3850 -89.2380 153° Southeast 534 615 35,000  Level FlightAware ADS-B
Mon 12:13:02 PM 41.2960 -89.1800 154° Southeast 535 616 35,000  Level FlightAware ADS-B
Mon 12:13:32 PM 41.2290 -89.1360 154° Southeast 535 616 35,000  Level FlightAware ADS-B
Mon 12:14:12 PM 41.1400 -89.0780 154° Southeast 535 616 35,000  Level FlightAware ADS-B
Mon 12:14:52 PM 41.0490 -89.0190 154° Southeast 536 617 35,000  Level FlightAware ADS-B
Mon 12:15:37 PM 40.9500 -88.9540 154° Southeast 536 617 35,000  Level FlightAware ADS-B
Mon 12:16:17 PM 40.8620 -88.8980 154° Southeast 537 618 35,000  Level FlightAware ADS-B
Mon 12:17:02 PM 40.7640 -88.8350 154° Southeast 538 619 35,000  Level FlightAware ADS-B
Mon 12:17:47 PM 40.6610 -88.7680 154° Southeast 538 619 35,000  Level FlightAware ADS-B
Mon 12:18:22 PM 40.5820 -88.7180 154° Southeast 538 619 35,000  Level FlightAware ADS-B
Mon 12:19:12 PM 40.4700 -88.6470 154° Southeast 538 619 35,000  Level FlightAware ADS-B
Mon 12:19:52 PM 40.3820 -88.5910 154° Southeast 538 619 35,000  Level FlightAware ADS-B
Mon 12:20:32 PM 40.2870 -88.5300 154° Southeast 539 620 35,000  Level FlightAware ADS-B
Mon 12:21:12 PM 40.2000 -88.4750 154° Southeast 539 620 35,000  Level FlightAware ADS-B
Mon 12:21:57 PM 40.1040 -88.4150 154° Southeast 539 620 35,000  Level FlightAware ADS-B
Mon 12:22:42 PM 39.9980 -88.3480 154° Southeast 539 620 35,000  Level FlightAware ADS-B
Mon 12:23:22 PM 39.9070 -88.2920 155° Southeast 540 621 35,000  Level FlightAware ADS-B
Mon 12:24:02 PM 39.8150 -88.2340 154° Southeast 539 620 35,000  Level FlightAware ADS-B
Mon 12:25:02 PM 39.6840 -88.1530 155° Southeast 540 621 35,000  Level FlightAware ADS-B
Mon 12:25:37 PM 39.6110 -88.1070 154° Southeast 540 621 35,000  Level FlightAware ADS-B
Mon 12:26:22 PM 39.5010 -88.0400 155° Southeast 540 621 35,000  Level FlightAware ADS-B
Mon 12:27:07 PM 39.3970 -87.9770 155° Southeast 540 621 35,000  Level FlightAware ADS-B
Mon 12:27:47 PM 39.3090 -87.9220 154° Southeast 540 621 35,000  Level FlightAware ADS-B
Mon 12:28:27 PM 39.2180 -87.8660 155° Southeast 540 621 35,000  Level FlightAware ADS-B
Mon 12:29:12 PM 39.1140 -87.8030 155° Southeast 539 620 35,000  Level FlightAware ADS-B
Mon 12:29:52 PM 39.0260 -87.7500 155° Southeast 539 620 35,000  Level FlightAware ADS-B
Mon 12:30:37 PM 38.9220 -87.6870 155° Southeast 538 619 35,000  Level FlightAware ADS-B
Mon 12:31:02 PM 38.8680 -87.6550 155° Southeast 538 619 35,000  Level FlightAware ADS-B
Mon 12:31:42 PM 38.7740 -87.5980 155° Southeast 538 619 35,000  Level FlightAware ADS-B
Mon 12:32:27 PM 38.6750 -87.5380 155° Southeast 538 619 35,000  Level FlightAware ADS-B
Mon 12:33:07 PM 38.5850 -87.4850 155° Southeast 537 618 35,000  Level FlightAware ADS-B
Mon 12:33:52 PM 38.4860 -87.4250 155° Southeast 538 619 35,000  Level FlightAware ADS-B
Mon 12:34:32 PM 38.3950 -87.3710 155° Southeast 537 618 35,000  Level FlightAware ADS-B
Mon 12:35:17 PM 38.2910 -87.3090 155° Southeast 538 619 35,000  Level FlightAware ADS-B
Mon 12:35:57 PM 38.2000 -87.2560 155° Southeast 539 620 35,000  Level FlightAware ADS-B
Mon 12:36:37 PM 38.1100 -87.2030 155° Southeast 539 620 35,000  Level FlightAware ADS-B
Mon 12:37:22 PM 38.0090 -87.1430 155° Southeast 539 620 35,000  Level FlightAware ADS-B
Mon 12:38:02 PM 37.9210 -87.0910 155° Southeast 538 619 35,000  Level FlightAware ADS-B
Mon 12:38:47 PM 37.8160 -87.0300 155° Southeast 537 618 35,000  Level FlightAware ADS-B
Mon 12:39:27 PM 37.7260 -86.9770 155° Southeast 537 618 35,000  Level FlightAware ADS-B
Mon 12:40:07 PM 37.6340 -86.9240 155° Southeast 537 618 35,000  Level FlightAware ADS-B
Mon 12:40:52 PM 37.5370 -86.8670 155° Southeast 537 618 35,000  Level FlightAware ADS-B
Mon 12:41:32 PM 37.4460 -86.8140 155° Southeast 537 618 35,000  Level FlightAware ADS-B
Mon 12:42:17 PM 37.3400 -86.7530 155° Southeast 536 617 35,000  Level FlightAware ADS-B
Mon 12:42:57 PM 37.2500 -86.7010 155° Southeast 536 617 35,000  Level FlightAware ADS-B
Mon 12:43:37 PM 37.1610 -86.6500 155° Southeast 536 617 35,000  Level FlightAware ADS-B
Mon 12:44:12 PM 37.0870 -86.6080 156° South 536 617 35,000  Level FlightAware ADS-B
Mon 12:45:12 PM 36.9520 -86.5300 155° Southeast 535 616 35,000  Level FlightAware ADS-B
Mon 12:45:36 PM 36.8899 -86.4948 156° South 536 617 35,000  Level FlightAware ADS-B
Mon 12:46:07 PM 36.8201 -86.4552 156° South 537 618 35,000  Level FlightAware ADS-B
Mon 12:46:37 PM 36.7516 -86.4161 155° Southeast 537 618 35,000  Level FlightAware ADS-B
Mon 12:47:07 PM 36.6833 -86.3773 156° South 536 617 35,000  Level FlightAware ADS-B
Mon 12:47:38 PM 36.6143 -86.3382 156° South 536 617 35,000  Level FlightAware ADS-B
Mon 12:48:32 PM 36.4950 -86.2710 156° South 535 616 35,000  Level FlightAware ADS-B
Mon 12:49:22 PM 36.3870 -86.2090 155° Southeast 535 616 35,000  Level FlightAware ADS-B
Mon 12:50:08 PM 36.2758 -86.1471 156° South 536 617 35,000  Level FlightAware ADS-B
Mon 12:50:39 PM 36.2038 -86.1069 156° South 534 615 35,000  Level FlightAware ADS-B
Mon 12:51:09 PM 36.1361 -86.0690 156° South 534 615 35,000  Level FlightAware ADS-B
Mon 12:51:40 PM 36.0676 -86.0306 156° South 535 616 35,000  Level FlightAware ADS-B
Mon 12:52:11 PM 35.9985 -85.9921 156° South 536 617 35,000  Level FlightAware ADS-B
Mon 12:52:48 PM 35.9140 -85.9451 156° South 536 617 35,000  Level FlightAware ADS-B
Mon 12:53:18 PM 35.8462 -85.9072 156° South 537 618 35,000  Level FlightAware ADS-B
Mon 12:53:57 PM 35.7630 -85.8610 156° South 536 617 35,000  Level FlightAware ADS-B
Mon 12:54:12 PM 35.7242 -85.8396 156° South 536 617 35,000  Level FlightAware ADS-B
Mon 12:54:42 PM 35.6551 -85.8015 156° South 536 617 35,000  Level FlightAware ADS-B
Mon 12:55:13 PM 35.5857 -85.7631 156° South 536 617 35,000  Level FlightAware ADS-B
Mon 12:55:43 PM 35.5172 -85.7253 156° South 536 617 35,000  Level FlightAware ADS-B
Mon 12:56:14 PM 35.4466 -85.6866 156° South 537 618 35,000  Level FlightAware ADS-B
Mon 12:56:46 PM 35.3756 -85.6474 156° South 537 618 35,000  Level FlightAware ADS-B
Mon 12:57:17 PM 35.3053 -85.6090 156° South 537 618 35,000  Level FlightAware ADS-B
Mon 12:57:47 PM 35.2359 -85.5711 156° South 537 618 35,000  Level FlightAware ADS-B
Mon 12:58:17 PM 35.1674 -85.5337 156° South 537 618 35,000  Level FlightAware ADS-B
Mon 12:58:52 PM 35.0910 -85.4920 156° South 535 616 35,000  Level FlightAware ADS-B
Mon 12:58:59 PM 35.0728 -85.4822 156° South 536 617 35,000  Level FlightAware ADS-B
Mon 12:59:30 PM 35.0034 -85.4443 156° South 534 615 35,000  Level FlightAware ADS-B
Mon 01:00:00 PM 34.9351 -85.4073 156° South 534 615 35,000  Level FlightAware ADS-B
Mon 01:00:42 PM 34.8490 -85.3610 156° South 534 615 35,000  Level FlightAware ADS-B
Mon 01:00:59 PM 34.8013 -85.3348 156° South 534 615 35,000  Level FlightAware ADS-B
Mon 01:01:39 PM 34.7119 -85.2865 156° South 534 615 35,000  Level FlightAware ADS-B
Mon 01:02:47 PM 34.5575 -85.2034 156° South 534 615 35,000  Level FlightAware ADS-B
Mon 01:03:17 PM 34.4899 -85.1670 156° South 533 613 35,000  Level FlightAware ADS-B
Mon 01:03:47 PM 34.4211 -85.1302 156° South 531 611 35,000  Level FlightAware ADS-B
Mon 01:04:18 PM 34.3528 -85.0940 156° South 532 612 35,000  Level FlightAware ADS-B
Mon 01:04:48 PM 34.2838 -85.0570 156° South 533 613 35,000  Level FlightAware ADS-B
Mon 01:05:19 PM 34.2157 -85.0206 156° South 531 611 35,000  Level FlightAware ADS-B
Mon 01:05:49 PM 34.1483 -84.9846 156° South 530 610 35,000  Level FlightAware ADS-B
Mon 01:06:19 PM 34.0809 -84.9488 156° South 529 609 35,000  Level FlightAware ADS-B
Mon 01:06:49 PM 34.0129 -84.9128 156° South 529 609 35,000  Level FlightAware ADS-B
Mon 01:07:21 PM 33.9404 -84.8745 156° South 527 606 35,000  Level FlightAware ADS-B
Mon 01:07:54 PM 33.8676 -84.8358 156° South 525 604 35,000  Level FlightAware ADS-B
Mon 01:08:26 PM 33.7963 -84.7979 156° South 523 602 35,000  Level FlightAware ADS-B
Mon 01:08:56 PM 33.7300 -84.7626 156° South 516 594 35,000  Level FlightAware ADS-B
Mon 01:09:26 PM 33.6645 -84.7289 157° South 512 589 35,000  Level FlightAware ADS-B
Mon 01:11:12 PM 33.4500 -84.6170 156° South 506 582 35,000  Level FlightAware ADS-B
Mon 01:11:37 PM 33.3990 -84.5910 157° South 505 581 35,000  Level FlightAware ADS-B
Mon 01:12:22 PM 33.2890 -84.5330 156° South 503 579 35,000  Level FlightAware ADS-B
Mon 01:13:32 PM 33.1530 -84.4620 156° South 494 568 35,000 -171 Level FlightAware ADS-B
Mon 01:14:07 PM 33.0740 -84.4210 156° South 490 564 34,700 -847 Descending FlightAware ADS-B
Mon 01:14:57 PM 32.9660 -84.3660 157° South 490 564 33,800 -1,133 Descending FlightAware ADS-B
Mon 01:15:37 PM 32.8760 -84.3200 157° South 504 580 33,000 -600 Descending FlightAware ADS-B
Mon 01:16:27 PM 32.7750 -84.2680 157° South 504 580 32,900 -60 Descending FlightAware ADS-B
Mon 01:17:17 PM 32.6850 -84.2200 156° South 504 580 32,900 -713 Level FlightAware ADS-B
Mon 01:17:57 PM 32.5820 -84.1690 157° South 31,000 -1,036 Descending FlightAware ADS-B
Mon 01:19:07 PM 32.4228 -84.0978 157° South 500 575 31,000  Level Atlanta Center
Mon 01:20:07 PM 32.2914 -84.0292 156° South 500 575 31,000  Level Atlanta Center
Mon 01:23:27 PM 31.8772 -83.8150 156° South 494 568 31,000  Level Jacksonville Center
Mon 01:24:27 PM 31.7481 -83.7525 158° South 494 568 31,000  Level Jacksonville Center
Mon 01:25:27 PM 31.6192 -83.6903 158° South 508 585 31,000  Level Jacksonville Center
Mon 01:26:27 PM 31.4900 -83.6258 157° South 515 593 31,000  Level Jacksonville Center
Mon 01:27:27 PM 31.3422 -83.5614 160° South 515 593 31,000  Level Jacksonville Center
Mon 01:28:27 PM 31.2319 -83.4928 152° Southeast 510 587 31,000  Level Jacksonville Center
Mon 01:29:27 PM 31.1111 -83.3900 144° Southeast 517 595 31,000 -700 Level Jacksonville Center
Mon 01:30:27 PM 30.9906 -83.2875 144° Southeast 529 609 29,600 -1,350 Descending Jacksonville Center
Mon 01:31:27 PM 30.8550 -83.1806 146° Southeast 534 615 28,300 -1,200 Descending Jacksonville Center
Mon 01:32:27 PM 30.7319 -83.0858 147° Southeast 534 615 27,200 -650 Descending Jacksonville Center
Mon 01:33:27 PM 30.6131 -82.9867 144° Southeast 534 615 27,000 -100 Descending Jacksonville Center
Mon 01:34:27 PM 30.4919 -82.8878 145° Southeast 534 615 27,000 -289 Level Jacksonville Center
Mon 01:40:22 PM 29.8130 -82.3780 145° Southeast 482 555 25,000 -289 Descending FlightAware ADS-B
Mon 01:41:22 PM 29.7010 -82.3190 155° Southeast 482 555 25,000  Level FlightAware ADS-B
Mon 01:42:02 PM 29.6320 -82.2820 155° Southeast 482 555 25,000 -1,120 Level FlightAware ADS-B
Mon 01:42:37 PM 29.5490 -82.2450 159° South 474 545 23,600 -1,120 Descending FlightAware ADS-B
Mon 01:43:17 PM 29.4810 -82.2100 156° South 474 545 23,600 -2,000 Level FlightAware ADS-B
Mon 01:44:07 PM 29.3640 -82.1580 159° South 429 494 20,600 -2,343 Descending FlightAware ADS-B
Mon 01:45:02 PM 29.2690 -82.1120 157° South 422 486 19,500 -1,800 Descending FlightAware ADS-B
Mon 01:45:47 PM 29.1800 -82.0690 157° South 422 486 17,600 -1,694 Descending FlightAware ADS-B
Mon 01:46:27 PM 29.1160 -82.0370 156° South 419 482 17,100 -2,480 Descending FlightAware ADS-B
Mon 01:47:02 PM 29.0510 -82.0070 158° South 413 475 14,500 -2,400 Descending FlightAware ADS-B
Mon 01:47:47 PM 28.9790 -81.9710 156° South 413 475 13,900 -2,400 Descending FlightAware ADS-B
Mon 01:48:32 PM 28.8990 -81.9290 155° Southeast 358 412 10,900 -2,325 Descending FlightAware ADS-B
Mon 01:49:07 PM 28.8630 -81.8830 132° Southeast 365 420 10,800 -353 Descending FlightAware ADS-B
Mon 01:49:57 PM 28.8210 -81.8110 124° Southeast 332 382 10,400 -675 Descending FlightAware ADS-B
Mon 01:50:27 PM 28.7940 -81.7630 123° Southeast 316 364 9,900 -1,080 Descending FlightAware ADS-B
Mon 01:50:47 PM 28.7790 -81.7370 123° Southeast 313 360 9,500 -1,200 Descending FlightAware ADS-B
Mon 01:51:22 PM 28.7490 -81.6860 124° Southeast 309 356 8,800 -700 Descending FlightAware ADS-B
Mon 01:51:47 PM 28.7290 -81.6500 122° Southeast 309 356 8,800  Level FlightAware ADS-B
Mon 01:52:17 PM 28.7080 -81.6100 121° Southeast 291 335 8,800  Level FlightAware ADS-B
Mon 01:52:42 PM 28.6930 -81.5810 121° Southeast 265 305 8,800  Level FlightAware ADS-B
Mon 01:53:12 PM 28.6730 -81.5410 120° Southeast 266 306 8,800  Level FlightAware ADS-B
Mon 01:53:37 PM 28.6570 -81.5110 121° Southeast 264 304 8,800  Level FlightAware ADS-B
Mon 01:54:07 PM 28.6380 -81.4740 120° Southeast 266 306 8,800  Level FlightAware ADS-B
Mon 01:54:37 PM 28.6190 -81.4390 122° Southeast 257 296 8,800  Level FlightAware ADS-B
Mon 01:54:52 PM 28.6050 -81.4280 145° Southeast 253 291 8,800  Level FlightAware ADS-B
Mon 01:55:02 PM 28.5930 -81.4240 164° South 246 283 8,800 -600 Level FlightAware ADS-B
Mon 01:55:32 PM 28.5590 -81.4220 177° South 240 276 8,400 -1,000 Descending FlightAware ADS-B
Mon 01:56:02 PM 28.5260 -81.4230 182° South 228 262 7,800 -1,200 Descending FlightAware ADS-B
Mon 01:56:27 PM 28.4990 -81.4230 180° South 223 257 7,300 -1,200 Descending FlightAware ADS-B
Mon 01:56:47 PM 28.4770 -81.4240 182° South 223 257 6,900 -1,333 Descending FlightAware ADS-B
Mon 01:57:12 PM 28.4520 -81.4240 180° South 228 262 6,300 -1,477 Descending FlightAware ADS-B
Mon 01:57:52 PM 28.4070 -81.4230 179° South 214 246 5,300 -1,457 Descending FlightAware ADS-B
Mon 01:58:22 PM 28.3770 -81.4230 180° South 214 246 4,600 -1,080 Descending FlightAware ADS-B
Mon 01:58:42 PM 28.3590 -81.4230 180° South 195 224 4,400 -750 Descending FlightAware ADS-B
Mon 01:59:02 PM 28.3400 -81.4190 170° South 193 222 4,100 -1,000 Descending FlightAware ADS-B
Mon 01:59:12 PM 28.3340 -81.4120 134° Southeast 189 217 3,900 -1,500 Descending FlightAware ADS-B
Mon 01:59:42 PM 28.3230 -81.3850 115° Southeast 191 220 3,100 -1,500 Descending FlightAware ADS-B
Mon 02:00:12 PM 28.3130 -81.3570 112° Southeast 186 214 2,400 -1,350 Descending FlightAware ADS-B
Mon 02:00:22 PM 28.3150 -81.3480 76° East 178 205 2,200 -960 Descending FlightAware ADS-B
Mon 02:00:37 PM 28.3240 -81.3390 41° Northeast 173 199 2,000 -1,029 Descending FlightAware ADS-B
Mon 02:00:57 PM 28.3390 -81.3310 25° Northeast 169 194 1,600 -1,067 Descending FlightAware ADS-B
Mon 02:01:22 PM 28.3590 -81.3280 North 162 186 1,200 -764 Descending FlightAware ADS-B
Mon 02:01:52 PM 28.3770 -81.3260 North 143 165 900 -771 Descending FlightAware ADS-B
Mon 02:02:32 PM 28.4070 -81.3260 360° North 133 153 300 -900 Descending FlightAware ADS-B
Mon 02:03:12 PM 28.4320 -81.3260 360° North 133 153 -450 Descending FlightAware ADS-B

Login

Don't have an account? Register now (free) for customized features, flight alerts, and more!